createdAt,value
2018-11-23T00:01:05.450Z,93.90
2018-11-23T00:03:36.208Z,93.70
2018-11-23T00:06:08.467Z,93.60
2018-11-23T00:08:38.488Z,93.60
2018-11-23T00:11:11.231Z,93.40
2018-11-23T00:13:42.493Z,93.50
2018-11-23T00:16:12.856Z,93.20
2018-11-23T00:18:43.272Z,93.40
2018-11-23T00:21:13.574Z,93.40
2018-11-23T00:23:43.486Z,93.00
2018-11-23T00:26:14.353Z,93.20
2018-11-23T00:28:44.382Z,93.20
2018-11-23T00:31:14.140Z,93.20
2018-11-23T00:33:44.174Z,93.20
2018-11-23T00:36:14.218Z,93.10
2018-11-23T00:38:44.009Z,93.20
2018-11-23T00:41:15.354Z,93.10
2018-11-23T00:43:46.119Z,93.20
2018-11-23T00:46:16.016Z,93.30
2018-11-23T00:48:46.098Z,93.20
2018-11-23T00:51:16.087Z,93.30
2018-11-23T00:53:46.677Z,93.20
2018-11-23T00:56:16.376Z,93.20
2018-11-23T00:58:46.507Z,93.00
2018-11-23T01:01:16.475Z,93.00
2018-11-23T01:03:46.313Z,92.80
2018-11-23T01:06:16.349Z,92.90
2018-11-23T01:08:46.735Z,93.00
2018-11-23T01:11:17.511Z,92.90
2018-11-23T01:13:47.316Z,92.90
2018-11-23T01:16:17.033Z,93.20
2018-11-23T01:18:47.144Z,93.10
2018-11-23T01:21:17.613Z,92.90
2018-11-23T01:23:47.409Z,92.90
2018-11-23T01:26:17.425Z,93.00
2018-11-23T01:28:47.567Z,93.00
2018-11-23T01:31:18.569Z,92.80
2018-11-23T01:33:48.504Z,93.00
2018-11-23T01:36:18.427Z,93.00
2018-11-23T01:38:48.089Z,92.90
2018-11-23T01:41:18.158Z,92.60
2018-11-23T01:43:48.365Z,93.10
2018-11-23T01:46:18.078Z,93.10
2018-11-23T01:48:48.314Z,92.70
2018-11-23T01:51:18.120Z,92.80
2018-11-23T01:53:48.227Z,92.80
2018-11-23T01:56:18.505Z,93.00
2018-11-23T01:58:49.174Z,93.10
2018-11-23T02:01:19.549Z,92.80
2018-11-23T02:03:49.377Z,92.90
2018-11-23T02:06:19.578Z,92.90
2018-11-23T02:08:49.910Z,93.00
2018-11-23T02:11:21.190Z,92.70
2018-11-23T02:13:50.920Z,92.80
2018-11-23T02:16:20.988Z,92.70
2018-11-23T02:18:51.540Z,92.70
2018-11-23T02:21:21.374Z,92.50
2018-11-23T02:23:51.580Z,92.40
2018-11-23T02:26:21.114Z,92.60
2018-11-23T02:28:51.564Z,92.50
2018-11-23T02:31:26.986Z,92.50
2018-11-23T02:33:56.560Z,92.40
2018-11-23T02:36:26.298Z,92.30
2018-11-23T02:38:56.608Z,92.10
2018-11-23T02:41:26.506Z,92.10
2018-11-23T02:43:56.871Z,92.10
2018-11-23T02:46:27.260Z,92.30
2018-11-23T02:48:57.196Z,92.50
2018-11-23T02:51:27.078Z,92.40
2018-11-23T02:53:57.866Z,92.40
2018-11-23T02:56:27.947Z,92.50
2018-11-23T02:58:59.176Z,92.60
2018-11-23T03:01:29.160Z,92.60
2018-11-23T03:03:58.931Z,92.50
2018-11-23T03:06:28.986Z,92.60
2018-11-23T03:08:59.635Z,93.00
2018-11-23T03:11:29.584Z,92.80
2018-11-23T03:13:59.509Z,92.80
2018-11-23T03:16:29.518Z,92.90
2018-11-23T03:18:59.875Z,92.80
2018-11-23T03:21:29.724Z,93.00
2018-11-23T03:23:59.762Z,93.00
2018-11-23T03:26:30.186Z,93.10
2018-11-23T03:29:00.080Z,93.10
2018-11-23T03:31:30.043Z,92.90
2018-11-23T03:34:00.360Z,93.30
2018-11-23T03:36:30.111Z,93.00
2018-11-23T03:39:00.788Z,93.30
2018-11-23T03:41:31.263Z,93.20
2018-11-23T03:44:01.227Z,93.60
2018-11-23T03:46:31.371Z,93.60
2018-11-23T03:49:01.428Z,93.50
2018-11-23T03:51:31.595Z,93.80
2018-11-23T03:54:01.470Z,93.90
2018-11-23T03:56:31.782Z,93.70
2018-11-23T03:59:01.702Z,93.60
2018-11-23T04:01:31.535Z,93.60
2018-11-23T04:04:01.886Z,93.70
2018-11-23T04:06:32.300Z,93.80
2018-11-23T04:12:52.156Z,93.70
2018-11-23T04:15:22.134Z,93.80
2018-11-23T04:17:52.761Z,93.60
2018-11-23T04:20:22.963Z,93.70
2018-11-23T04:22:53.339Z,93.80
2018-11-23T04:25:23.995Z,93.80
2018-11-23T04:27:54.308Z,93.80
2018-11-23T04:30:24.436Z,93.80
2018-11-23T04:32:54.527Z,93.80
2018-11-23T04:35:24.735Z,93.70
2018-11-23T04:37:54.640Z,93.30
2018-11-23T04:40:24.782Z,93.40
2018-11-23T04:42:54.811Z,93.60
2018-11-23T04:45:24.803Z,93.60
2018-11-23T04:47:54.722Z,93.60
2018-11-23T04:50:24.743Z,93.30
2018-11-23T04:52:54.846Z,93.10
2018-11-23T04:55:24.957Z,93.10
2018-11-23T04:57:55.639Z,93.10
2018-11-23T05:00:25.595Z,93.40
2018-11-23T05:02:56.016Z,93.60
2018-11-23T05:05:26.347Z,93.60
2018-11-23T05:07:56.578Z,93.60
2018-11-23T05:10:27.142Z,93.60
2018-11-23T05:12:57.075Z,93.20
2018-11-23T05:15:27.769Z,93.20
2018-11-23T05:17:57.753Z,93.40
2018-11-23T05:20:27.896Z,93.00
2018-11-23T05:22:57.604Z,93.00
2018-11-23T05:25:27.959Z,92.80
2018-11-23T05:27:58.578Z,92.80
2018-11-23T05:30:29.223Z,93.00
2018-11-23T05:32:59.457Z,93.20
2018-11-23T05:35:29.688Z,93.00
2018-11-23T05:37:59.522Z,92.70
2018-11-23T05:40:29.514Z,92.80
2018-11-23T05:43:04.272Z,92.70
2018-11-23T05:45:30.258Z,92.70
2018-11-23T05:48:09.910Z,92.60
2018-11-23T05:50:47.149Z,92.80
2018-11-23T05:53:17.237Z,92.70
2018-11-23T05:55:47.472Z,92.90
2018-11-23T05:58:17.907Z,92.90
2018-11-23T06:00:48.671Z,92.70
2018-11-23T06:03:19.745Z,92.90
2018-11-23T06:05:50.058Z,92.90
2018-11-23T06:08:24.186Z,93.00
2018-11-23T06:10:54.265Z,92.80
2018-11-23T06:13:25.159Z,92.90
2018-11-23T06:15:55.712Z,92.90
2018-11-23T06:18:26.729Z,92.70
2018-11-23T06:20:57.225Z,92.60
2018-11-23T06:23:28.030Z,92.60
2018-11-23T06:26:09.878Z,92.90
2018-11-23T06:28:39.788Z,92.70
2018-11-23T06:31:11.952Z,92.80
2018-11-23T06:33:45.315Z,92.70
2018-11-23T06:36:15.399Z,92.70
2018-11-23T06:38:45.625Z,92.90
2018-11-23T06:41:16.461Z,92.90
2018-11-23T06:43:48.720Z,92.80
2018-11-23T06:46:19.476Z,92.90
2018-11-23T06:48:52.467Z,92.90
2018-11-23T06:51:24.169Z,93.00
2018-11-23T06:53:55.723Z,92.90
2018-11-23T06:56:26.487Z,92.90
2018-11-23T06:58:57.904Z,93.00
2018-11-23T07:01:28.362Z,92.80
2018-11-23T07:03:59.582Z,92.80
2018-11-23T07:06:29.606Z,92.80
2018-11-23T07:08:59.443Z,92.70
2018-11-23T07:11:31.774Z,92.50
2018-11-23T07:14:04.094Z,92.50
2018-11-23T07:16:32.967Z,92.80
2018-11-23T07:19:03.105Z,92.90
2018-11-23T07:21:33.400Z,92.90
2018-11-23T07:24:03.855Z,92.70
2018-11-23T07:26:33.804Z,92.50
2018-11-23T07:29:04.989Z,92.80
2018-11-23T07:31:35.309Z,93.00
2018-11-23T07:34:06.347Z,93.10
2018-11-23T07:36:36.187Z,93.40
2018-11-23T07:39:07.952Z,93.20
2018-11-23T07:41:50.374Z,93.20
2018-11-23T07:44:20.679Z,93.30
2018-11-23T07:46:52.034Z,93.40
2018-11-23T07:49:23.483Z,93.50
2018-11-23T07:51:53.855Z,93.70
2018-11-23T07:54:26.751Z,93.70
2018-11-23T07:56:56.807Z,93.60
2018-11-23T07:59:28.528Z,93.70
2018-11-23T08:01:59.184Z,93.60
2018-11-23T08:04:29.667Z,93.80
2018-11-23T08:07:02.264Z,93.90
2018-11-23T08:09:34.482Z,94.30
2018-11-23T08:12:04.818Z,95.30
2018-11-23T08:14:35.204Z,96.30
2018-11-23T08:17:07.409Z,96.40
2018-11-23T08:19:38.442Z,96.90
2018-11-23T08:22:08.784Z,96.90
2018-11-23T08:24:39.847Z,96.40
2018-11-23T08:27:12.070Z,96.60
2018-11-23T08:29:43.054Z,96.90
2018-11-23T08:32:12.879Z,97.40
2018-11-23T08:34:44.542Z,97.90
2018-11-23T08:37:14.682Z,99.20
2018-11-23T08:39:45.491Z,97.90
2018-11-23T08:42:18.093Z,98.20
2018-11-23T08:44:48.875Z,94.50
2018-11-23T08:47:18.695Z,95.40
2018-11-23T08:49:49.617Z,93.00
2018-11-23T08:52:20.534Z,94.70
2018-11-23T08:54:51.320Z,96.10
2018-11-23T08:57:21.715Z,92.80
2018-11-23T08:59:51.990Z,92.60
2018-11-23T09:02:23.071Z,91.50
2018-11-23T09:04:53.034Z,92.80
2018-11-23T09:07:22.959Z,94.40
2018-11-23T09:09:53.287Z,91.10
2018-11-23T09:12:23.435Z,89.50
2018-11-23T09:14:54.042Z,87.70
2018-11-23T09:17:25.843Z,90.80
2018-11-23T09:19:56.807Z,90.70
2018-11-23T09:22:27.655Z,91.50
2018-11-23T09:24:58.405Z,83.00
2018-11-23T09:27:29.054Z,84.90
2018-11-23T09:29:59.345Z,88.80
2018-11-23T09:32:29.443Z,88.90
2018-11-23T09:34:59.345Z,88.60
2018-11-23T09:37:30.533Z,83.10
2018-11-23T09:40:02.109Z,85.00
2018-11-23T09:42:34.293Z,90.40
2018-11-23T09:45:08.730Z,87.10
2018-11-23T09:47:40.340Z,85.80
2018-11-23T09:50:14.229Z,88.90
2018-11-23T09:52:46.126Z,84.20
2018-11-23T09:55:17.658Z,83.80
2018-11-23T09:57:49.340Z,85.50
2018-11-23T10:00:24.740Z,87.40
2018-11-23T10:02:55.836Z,90.50
2018-11-23T10:05:31.049Z,81.40
2018-11-23T10:08:03.901Z,85.60
2018-11-23T10:10:34.413Z,80.50
2018-11-23T10:13:04.993Z,81.40
2018-11-23T10:15:35.387Z,80.80
2018-11-23T10:18:06.825Z,78.20
2018-11-23T10:20:38.512Z,80.00
2018-11-23T10:23:11.268Z,88.00
2018-11-23T10:25:42.469Z,80.10
2018-11-23T10:28:12.709Z,80.40
2018-11-23T10:30:43.524Z,81.70
2018-11-23T10:33:14.188Z,84.20
2018-11-23T10:35:44.482Z,78.00
2018-11-23T10:38:15.874Z,83.70
2018-11-23T10:40:46.489Z,75.50
2018-11-23T10:43:16.686Z,79.90
2018-11-23T10:45:47.433Z,79.70
2018-11-23T10:48:18.146Z,79.90
2018-11-23T10:50:48.732Z,78.80
2018-11-23T10:53:19.717Z,81.40
2018-11-23T10:55:50.804Z,84.40
2018-11-23T10:58:23.694Z,80.60
2018-11-23T11:01:01.721Z,78.60
2018-11-23T11:03:33.709Z,76.70
2018-11-23T11:06:13.963Z,78.70
2018-11-23T11:08:44.361Z,76.20
2018-11-23T11:11:14.668Z,77.90
2018-11-23T11:13:45.207Z,75.70
2018-11-23T11:16:15.503Z,75.00
2018-11-23T11:18:47.037Z,74.30
2018-11-23T11:21:17.529Z,71.60
2018-11-23T11:23:52.214Z,74.70
2018-11-23T11:26:23.648Z,74.60
2018-11-23T11:28:54.155Z,76.70
2018-11-23T11:31:25.444Z,78.20
2018-11-23T11:33:57.922Z,77.20
2018-11-23T11:36:27.727Z,77.30
2018-11-23T11:39:05.979Z,76.90
2018-11-23T11:41:42.401Z,79.60
2018-11-23T11:44:15.233Z,77.10
2018-11-23T11:46:46.581Z,80.00
2018-11-23T11:49:18.648Z,77.80
2018-11-23T11:51:50.183Z,81.50
2018-11-23T11:54:21.410Z,75.50
2018-11-23T11:56:51.415Z,76.90
2018-11-23T11:59:22.396Z,77.20
2018-11-23T12:01:54.645Z,74.30
2018-11-23T12:04:28.846Z,76.10
2018-11-23T12:07:00.373Z,79.10
2018-11-23T12:09:30.948Z,80.00
2018-11-23T12:12:03.128Z,79.00
2018-11-23T12:14:34.405Z,78.70
2018-11-23T12:17:05.911Z,82.00
2018-11-23T12:19:37.736Z,79.60
2018-11-23T12:22:07.875Z,77.10
2018-11-23T12:24:41.002Z,81.00
2018-11-23T12:27:11.674Z,81.50
2018-11-23T12:29:42.427Z,80.40
2018-11-23T12:32:12.574Z,82.50
2018-11-23T12:34:42.875Z,83.10
2018-11-23T12:37:13.371Z,81.40
2018-11-23T12:39:43.920Z,81.90
2018-11-23T12:42:14.528Z,81.30
2018-11-23T12:44:49.092Z,83.00
2018-11-23T12:47:19.667Z,83.70
2018-11-23T12:49:50.860Z,85.60
2018-11-23T12:52:22.030Z,84.20
2018-11-23T12:54:53.790Z,86.80
2018-11-23T12:57:30.215Z,81.70
2018-11-23T13:00:01.958Z,78.50
2018-11-23T13:02:33.617Z,80.60
2018-11-23T13:05:04.143Z,83.40
2018-11-23T13:07:34.755Z,82.50
2018-11-23T13:10:06.431Z,86.30
2018-11-23T13:12:37.882Z,87.70
2018-11-23T13:15:09.082Z,85.20
2018-11-23T13:17:40.799Z,86.20
2018-11-23T13:20:14.469Z,86.00
2018-11-23T13:22:47.110Z,88.00
2018-11-23T13:25:19.208Z,86.50
2018-11-23T13:27:50.494Z,88.70
2018-11-23T13:30:23.075Z,87.50
2018-11-23T13:32:53.630Z,86.00
2018-11-23T13:35:25.037Z,89.50
2018-11-23T13:37:55.484Z,87.10
2018-11-23T13:40:28.025Z,85.90
2018-11-23T13:43:00.287Z,88.80
2018-11-23T13:45:33.615Z,86.40
2018-11-23T13:48:07.790Z,84.60
2018-11-23T13:50:38.872Z,86.30
2018-11-23T13:53:11.812Z,88.90
2018-11-23T13:55:44.765Z,86.80
2018-11-23T13:58:21.538Z,89.50
2018-11-23T14:00:54.082Z,87.70
2018-11-23T14:03:34.850Z,88.00
2018-11-23T14:06:07.315Z,86.60
2018-11-23T14:08:39.813Z,90.00
2018-11-23T14:11:12.512Z,91.20
2018-11-23T14:13:43.877Z,91.00
2018-11-23T14:16:14.685Z,91.00
2018-11-23T14:18:45.947Z,91.20
2018-11-23T14:21:16.300Z,91.30
2018-11-23T14:23:46.888Z,92.40
2018-11-23T14:26:19.144Z,93.20
2018-11-23T14:28:49.187Z,93.50
2018-11-23T14:31:25.235Z,93.90
2018-11-23T14:33:56.307Z,94.10
2018-11-23T14:36:27.655Z,93.70
2018-11-23T14:39:01.515Z,93.90
2018-11-23T14:41:31.659Z,94.00
2018-11-23T14:44:06.772Z,92.90
2018-11-23T14:46:32.531Z,93.00
2018-11-23T14:49:02.508Z,93.10
2018-11-23T14:51:32.881Z,93.80
2018-11-23T14:54:05.853Z,95.10
2018-11-23T14:56:36.447Z,93.50
2018-11-23T14:59:08.577Z,94.90
2018-11-23T15:01:38.942Z,96.00
2018-11-23T15:04:10.993Z,94.90
2018-11-23T15:06:43.100Z,94.40
2018-11-23T15:09:13.618Z,94.00
2018-11-23T15:11:43.874Z,94.40
2018-11-23T15:14:15.399Z,94.00
2018-11-23T15:16:45.700Z,94.40
2018-11-23T15:19:15.963Z,94.50
2018-11-23T15:21:48.866Z,95.10
2018-11-23T15:24:20.707Z,94.60
2018-11-23T15:26:52.972Z,94.70
2018-11-23T15:29:23.816Z,94.00
2018-11-23T15:31:54.778Z,94.40
2018-11-23T15:34:26.368Z,94.80
2018-11-23T15:36:56.767Z,94.40
2018-11-23T15:39:28.196Z,94.60
2018-11-23T15:41:58.660Z,95.20
2018-11-23T15:44:29.489Z,94.20
2018-11-23T15:47:00.660Z,93.60
2018-11-23T15:49:31.204Z,93.10
2018-11-23T15:52:01.176Z,93.80
2018-11-23T15:54:31.206Z,94.10
2018-11-23T15:57:02.348Z,93.90
2018-11-23T15:59:37.171Z,95.30
2018-11-23T16:02:18.173Z,95.70
2018-11-23T16:04:49.093Z,95.50
2018-11-23T16:07:20.603Z,96.40
2018-11-23T16:09:51.850Z,96.00
2018-11-23T16:12:25.741Z,96.30
2018-11-23T16:14:56.943Z,96.20
2018-11-23T16:17:28.628Z,95.70
2018-11-23T16:19:59.598Z,95.60
2018-11-23T16:22:31.191Z,96.10
2018-11-23T16:25:02.198Z,97.00
2018-11-23T16:27:33.271Z,96.70
2018-11-23T16:30:04.183Z,96.40
2018-11-23T16:32:36.179Z,96.50
2018-11-23T16:35:08.465Z,96.80
2018-11-23T16:37:39.930Z,96.60
2018-11-23T16:40:13.066Z,96.30
2018-11-23T16:42:45.594Z,96.40
2018-11-23T16:45:19.649Z,96.40
2018-11-23T16:47:52.820Z,95.90
2018-11-23T16:50:23.954Z,95.50
2018-11-23T16:52:54.347Z,95.50
2018-11-23T16:55:26.146Z,95.40
2018-11-23T16:58:00.526Z,94.70
2018-11-23T17:00:33.695Z,95.30
2018-11-23T17:03:06.287Z,95.70
2018-11-23T17:05:38.064Z,95.10
2018-11-23T17:08:10.160Z,95.10
2018-11-23T17:10:40.197Z,94.80
2018-11-23T17:13:11.061Z,95.20
2018-11-23T17:15:41.344Z,94.90
2018-11-23T17:18:16.626Z,94.20
2018-11-23T17:20:47.374Z,94.50
2018-11-23T17:23:21.759Z,94.50
2018-11-23T17:25:53.137Z,94.20
2018-11-23T17:28:23.535Z,93.70
2018-11-23T17:30:56.535Z,94.30
2018-11-23T17:33:27.628Z,94.60
2018-11-23T17:35:58.979Z,95.00
2018-11-23T17:38:29.871Z,94.60
2018-11-23T17:41:01.593Z,94.70
2018-11-23T17:43:32.057Z,94.50
2018-11-23T17:46:04.924Z,94.20
2018-11-23T17:48:36.196Z,94.20
2018-11-23T17:51:08.583Z,94.70
2018-11-23T17:53:38.862Z,94.50
2018-11-23T17:56:12.330Z,94.20
2018-11-23T17:58:42.827Z,94.20
2018-11-23T18:01:14.026Z,93.90
2018-11-23T18:03:45.154Z,93.80
2018-11-23T18:06:17.362Z,93.90
2018-11-23T18:08:48.025Z,93.80
2018-11-23T18:11:19.097Z,94.20
2018-11-23T18:13:49.687Z,94.00
2018-11-23T18:16:20.148Z,94.10
2018-11-23T18:18:51.913Z,93.80
2018-11-23T18:21:24.937Z,94.20
2018-11-23T18:23:57.168Z,94.20
2018-11-23T18:26:31.670Z,94.30
2018-11-23T18:29:02.067Z,94.20
2018-11-23T18:31:32.425Z,94.00
2018-11-23T18:34:05.769Z,94.00
2018-11-23T18:36:37.081Z,93.30
2018-11-23T18:39:11.894Z,93.50
2018-11-23T18:41:45.707Z,93.40
2018-11-23T18:44:17.282Z,93.30
2018-11-23T18:46:49.128Z,93.30
2018-11-23T18:49:20.503Z,93.10
2018-11-23T18:51:52.022Z,92.70
2018-11-23T18:54:22.200Z,92.80
2018-11-23T18:56:52.943Z,92.90
2018-11-23T18:59:26.853Z,92.70
2018-11-23T19:02:11.311Z,92.50
2018-11-23T19:04:41.879Z,92.50
2018-11-23T19:07:13.052Z,92.60
2018-11-23T19:09:43.864Z,92.70
2018-11-23T19:12:14.053Z,93.00
2018-11-23T19:14:46.251Z,93.30
2018-11-23T19:17:17.320Z,93.40
2018-11-23T19:19:48.720Z,93.20
2018-11-23T19:22:19.632Z,93.40
2018-11-23T19:24:52.136Z,93.80
2018-11-23T19:27:23.328Z,94.80
2018-11-23T19:29:55.728Z,95.10
2018-11-23T19:32:27.644Z,95.00
2018-11-23T19:35:00.589Z,95.30
2018-11-23T19:40:17.127Z,95.40
2018-11-23T19:42:51.603Z,95.50
2018-11-23T19:45:22.193Z,95.90
2018-11-23T19:47:55.028Z,95.90
2018-11-23T19:50:27.531Z,96.50
2018-11-23T19:52:58.094Z,96.30
2018-11-23T19:55:29.639Z,96.50
2018-11-23T19:58:01.425Z,96.60
2018-11-23T20:00:32.862Z,96.60
2018-11-23T20:03:04.907Z,97.30
2018-11-23T20:05:35.524Z,97.80
2018-11-23T20:08:09.662Z,97.80
2018-11-23T20:10:40.237Z,97.30
2018-11-23T20:13:12.749Z,96.90
2018-11-23T20:15:45.600Z,96.50
2018-11-23T20:18:16.579Z,96.50
2018-11-23T20:20:47.706Z,96.60
2018-11-23T20:23:20.720Z,96.60
2018-11-23T20:26:22.046Z,96.90
2018-11-23T20:28:54.516Z,96.80
2018-11-23T20:31:27.785Z,96.80
2018-11-23T20:33:58.513Z,96.70
2018-11-23T20:36:29.890Z,96.80
2018-11-23T20:39:02.188Z,96.70
2018-11-23T20:41:33.559Z,96.60
2018-11-23T20:44:04.430Z,96.80
2018-11-23T20:46:37.084Z,96.40
2018-11-23T20:49:08.692Z,96.30
2018-11-23T20:51:39.339Z,96.40
2018-11-23T20:54:10.607Z,96.20
2018-11-23T20:56:44.469Z,95.90
2018-11-23T20:59:18.528Z,95.30
2018-11-23T21:01:53.135Z,95.40
2018-11-23T21:04:26.204Z,95.90
2018-11-23T21:06:58.065Z,95.80
2018-11-23T21:09:31.136Z,95.40
2018-11-23T21:12:01.807Z,95.90
2018-11-23T21:14:32.727Z,95.20
2018-11-23T21:17:06.917Z,96.00
2018-11-23T21:19:38.151Z,95.70
2018-11-23T21:22:10.215Z,95.70
2018-11-23T21:24:41.539Z,95.70
2018-11-23T21:27:12.637Z,95.60
2018-11-23T21:29:43.459Z,95.60
2018-11-23T21:32:15.207Z,95.60
2018-11-23T21:34:46.778Z,96.10
2018-11-23T21:37:20.804Z,96.20
2018-11-23T21:39:54.754Z,95.40
2018-11-23T21:42:28.863Z,95.70
2018-11-23T21:45:04.922Z,95.90
2018-11-23T21:47:42.116Z,96.00
2018-11-23T21:50:16.438Z,96.00
2018-11-23T21:52:50.522Z,96.10
2018-11-23T21:55:23.949Z,96.30
2018-11-23T21:57:56.434Z,95.90
2018-11-23T22:00:28.910Z,96.00
2018-11-23T22:02:59.705Z,96.00
2018-11-23T22:05:29.979Z,96.30
2018-11-23T22:08:01.024Z,96.10
2018-11-23T22:10:32.023Z,95.80
2018-11-23T22:13:02.098Z,95.90
2018-11-23T22:15:32.303Z,95.90
2018-11-23T22:18:02.466Z,95.70
2018-11-23T22:20:33.361Z,95.80
2018-11-23T22:23:03.662Z,95.40
2018-11-23T22:25:33.576Z,95.30
2018-11-23T22:28:04.331Z,95.30
2018-11-23T22:30:37.074Z,95.30
2018-11-23T22:33:08.946Z,95.60
2018-11-23T22:35:41.608Z,95.60
2018-11-23T22:38:12.736Z,95.50
2018-11-23T22:40:43.201Z,95.50
2018-11-23T22:43:13.976Z,95.30
2018-11-23T22:45:45.717Z,95.80
2018-11-23T22:48:19.032Z,95.70
2018-11-23T22:50:50.068Z,96.00
2018-11-23T22:53:24.690Z,96.20
2018-11-23T22:55:55.420Z,96.20
2018-11-23T22:58:25.809Z,96.40
2018-11-23T23:01:02.952Z,96.10
2018-11-23T23:03:33.259Z,96.40
2018-11-23T23:06:04.843Z,96.70
2018-11-23T23:08:35.469Z,96.10
2018-11-23T23:11:05.860Z,96.00
2018-11-23T23:13:36.803Z,96.40
2018-11-23T23:16:08.781Z,96.00
2018-11-23T23:18:39.443Z,96.30
2018-11-23T23:21:09.546Z,96.40
2018-11-23T23:23:39.925Z,95.80
2018-11-23T23:26:11.595Z,96.20
2018-11-23T23:28:43.467Z,97.00
2018-11-23T23:31:13.370Z,96.50
2018-11-23T23:33:43.209Z,96.40
2018-11-23T23:36:13.992Z,96.70
2018-11-23T23:38:47.195Z,96.10
2018-11-23T23:41:17.335Z,96.10
2018-11-23T23:43:47.788Z,96.30
2018-11-23T23:46:17.803Z,96.60
2018-11-23T23:48:48.523Z,96.40
2018-11-23T23:51:19.996Z,96.60
2018-11-23T23:53:50.383Z,97.10
2018-11-23T23:56:20.962Z,96.40
2018-11-23T23:58:51.789Z,96.90
